sensor_id;sensor_type;location;lat;lon;timestamp;pressure;altitude;pressure_sealevel;temperature;humidity
7748;BME280;3918;42.564;23.164;2023-01-09T06:02:26;-11650.84;;;-142.29;100.00
7748;BME280;3918;42.564;23.164;2023-01-09T06:04:53;-11650.84;;;-142.29;100.00
7748;BME280;3918;42.564;23.164;2023-01-09T06:07:19;-11650.84;;;-142.29;100.00
7748;BME280;3918;42.564;23.164;2023-01-09T06:09:46;-11650.84;;;-142.29;100.00
7748;BME280;3918;42.564;23.164;2023-01-09T06:12:13;-11650.84;;;-142.29;100.00
7748;BME280;3918;42.564;23.164;2023-01-09T06:14:40;-11650.84;;;-142.29;100.00
7748;BME280;3918;42.564;23.164;2023-01-09T06:17:06;-11650.84;;;-142.29;100.00
7748;BME280;3918;42.564;23.164;2023-01-09T06:19:35;-11650.84;;;-142.29;100.00
7748;BME280;3918;42.564;23.164;2023-01-09T06:22:02;-11650.84;;;-142.29;100.00
7748;BME280;3918;42.564;23.164;2023-01-09T06:24:29;-11650.84;;;-142.29;100.00
7748;BME280;3918;42.564;23.164;2023-01-09T06:26:56;-11650.84;;;-142.29;100.00
7748;BME280;3918;42.564;23.164;2023-01-09T06:29:22;-11650.84;;;-142.29;100.00
7748;BME280;3918;42.564;23.164;2023-01-09T06:31:49;-11650.84;;;-142.29;100.00
7748;BME280;3918;42.564;23.164;2023-01-09T06:34:16;-11650.84;;;-142.29;100.00
7748;BME280;3918;42.564;23.164;2023-01-09T06:36:44;-11650.84;;;-142.29;100.00
7748;BME280;3918;42.564;23.164;2023-01-09T06:39:10;-11650.84;;;-142.29;100.00
7748;BME280;3918;42.564;23.164;2023-01-09T06:41:38;-11650.84;;;-142.29;100.00
7748;BME280;3918;42.564;23.164;2023-01-09T06:44:05;-11650.84;;;-142.29;100.00
7748;BME280;3918;42.564;23.164;2023-01-09T06:46:31;-11650.84;;;-142.29;100.00
7748;BME280;3918;42.564;23.164;2023-01-09T06:48:58;-11650.84;;;-142.29;100.00
7748;BME280;3918;42.564;23.164;2023-01-09T06:51:25;-11650.84;;;-142.29;100.00
7748;BME280;3918;42.564;23.164;2023-01-09T06:53:53;-11650.84;;;-142.29;100.00
7748;BME280;3918;42.564;23.164;2023-01-09T06:56:20;-11650.84;;;-142.29;100.00
7748;BME280;3918;42.564;23.164;2023-01-09T06:58:47;-11650.84;;;-142.29;100.00
7748;BME280;3918;42.564;23.164;2023-01-09T07:01:13;-11650.84;;;-142.29;100.00
7748;BME280;3918;42.564;23.164;2023-01-09T07:03:40;-11650.84;;;-142.29;100.00
7748;BME280;3918;42.564;23.164;2023-01-09T07:06:07;-11650.84;;;-142.29;100.00
7748;BME280;3918;42.564;23.164;2023-01-09T07:08:34;-11650.84;;;-142.29;100.00
7748;BME280;3918;42.564;23.164;2023-01-09T07:11:02;-11650.84;;;-142.29;100.00
7748;BME280;3918;42.564;23.164;2023-01-09T07:13:29;-11650.84;;;-142.29;100.00
7748;BME280;3918;42.564;23.164;2023-01-09T07:15:55;-11650.84;;;-142.29;100.00
7748;BME280;3918;42.564;23.164;2023-01-09T07:18:22;-11650.84;;;-142.29;100.00
7748;BME280;3918;42.564;23.164;2023-01-09T07:20:50;-11650.84;;;-142.29;100.00
7748;BME280;3918;42.564;23.164;2023-01-09T07:23:16;-11650.84;;;-142.29;100.00
7748;BME280;3918;42.564;23.164;2023-01-09T07:25:44;-11650.84;;;-142.29;100.00
7748;BME280;3918;42.564;23.164;2023-01-09T07:28:12;-11650.84;;;-142.29;100.00
7748;BME280;3918;42.564;23.164;2023-01-09T07:30:38;-11650.84;;;-142.29;100.00
7748;BME280;3918;42.564;23.164;2023-01-09T07:33:05;-11650.84;;;-142.29;100.00
7748;BME280;3918;42.564;23.164;2023-01-09T07:35:32;-11650.84;;;-142.29;100.00
7748;BME280;3918;42.564;23.164;2023-01-09T07:37:59;-11650.84;;;-142.29;100.00
7748;BME280;3918;42.564;23.164;2023-01-09T07:40:26;-11650.84;;;-142.29;100.00
7748;BME280;3918;42.564;23.164;2023-01-09T07:42:53;-11650.84;;;-142.29;100.00
7748;BME280;3918;42.564;23.164;2023-01-09T07:45:21;-11650.84;;;-142.29;100.00
7748;BME280;3918;42.564;23.164;2023-01-09T07:47:47;-11650.84;;;-142.29;100.00
7748;BME280;3918;42.564;23.164;2023-01-09T07:50:16;-11650.84;;;-142.29;100.00
7748;BME280;3918;42.564;23.164;2023-01-09T07:52:43;-11650.84;;;-142.29;100.00
7748;BME280;3918;42.564;23.164;2023-01-09T07:55:10;-11650.84;;;-142.29;100.00
7748;BME280;3918;42.564;23.164;2023-01-09T07:57:37;-11650.84;;;-142.29;100.00
7748;BME280;3918;42.564;23.164;2023-01-09T08:00:05;-11650.84;;;-142.29;100.00
7748;BME280;3918;42.564;23.164;2023-01-09T08:02:36;-11650.84;;;-142.29;100.00
7748;BME280;3918;42.564;23.164;2023-01-09T08:05:03;-11650.84;;;-142.29;100.00
7748;BME280;3918;42.564;23.164;2023-01-09T08:07:30;-11650.84;;;-142.29;100.00
7748;BME280;3918;42.564;23.164;2023-01-09T08:09:57;-11650.84;;;-142.29;100.00
7748;BME280;3918;42.564;23.164;2023-01-09T08:12:24;-11650.84;;;-142.29;100.00
7748;BME280;3918;42.564;23.164;2023-01-09T08:14:51;-11650.84;;;-142.29;100.00
7748;BME280;3918;42.564;23.164;2023-01-09T08:17:17;-11650.84;;;-142.29;100.00
7748;BME280;3918;42.564;23.164;2023-01-09T08:19:45;-11650.84;;;-142.29;100.00
7748;BME280;3918;42.564;23.164;2023-01-09T08:22:12;-11650.84;;;-142.29;100.00
7748;BME280;3918;42.564;23.164;2023-01-09T08:24:39;-11650.84;;;-142.29;100.00
7748;BME280;3918;42.564;23.164;2023-01-09T08:27:06;-11650.84;;;-142.29;100.00
7748;BME280;3918;42.564;23.164;2023-01-09T08:29:32;-11650.84;;;-142.29;100.00
7748;BME280;3918;42.564;23.164;2023-01-09T08:31:59;-11650.84;;;-142.29;100.00
7748;BME280;3918;42.564;23.164;2023-01-09T08:34:26;-11650.84;;;-142.29;100.00
7748;BME280;3918;42.564;23.164;2023-01-09T08:36:55;-11650.84;;;-142.29;100.00
7748;BME280;3918;42.564;23.164;2023-01-09T08:39:23;-11650.84;;;-142.29;100.00
7748;BME280;3918;42.564;23.164;2023-01-09T08:41:49;-11650.84;;;-142.29;100.00
7748;BME280;3918;42.564;23.164;2023-01-09T08:44:34;-11650.84;;;-142.29;100.00
7748;BME280;3918;42.564;23.164;2023-01-09T08:47:21;-11650.84;;;-142.29;100.00
7748;BME280;3918;42.564;23.164;2023-01-09T08:49:48;-11650.84;;;-142.29;100.00
7748;BME280;3918;42.564;23.164;2023-01-09T08:52:17;-11650.84;;;-142.29;100.00
7748;BME280;3918;42.564;23.164;2023-01-09T08:54:43;-11650.84;;;-142.29;100.00
7748;BME280;3918;42.564;23.164;2023-01-09T08:57:10;-11650.84;;;-142.29;100.00
7748;BME280;3918;42.564;23.164;2023-01-09T08:59:37;-11650.84;;;-142.29;100.00
7748;BME280;3918;42.564;23.164;2023-01-09T09:02:03;-11650.84;;;-142.29;100.00
7748;BME280;3918;42.564;23.164;2023-01-09T09:04:30;-11650.84;;;-142.29;100.00
7748;BME280;3918;42.564;23.164;2023-01-09T09:06:57;-11650.84;;;-142.29;100.00
7748;BME280;3918;42.564;23.164;2023-01-09T09:09:25;-11650.84;;;-142.29;100.00
7748;BME280;3918;42.564;23.164;2023-01-09T09:11:52;-11650.84;;;-142.29;100.00
7748;BME280;3918;42.564;23.164;2023-01-09T09:14:19;-11650.84;;;-142.29;100.00
7748;BME280;3918;42.564;23.164;2023-01-09T09:17:03;-11650.84;;;-142.29;100.00
7748;BME280;3918;42.564;23.164;2023-01-09T09:19:30;-11650.84;;;-142.29;100.00
7748;BME280;3918;42.564;23.164;2023-01-09T09:21:57;-11650.84;;;-142.29;100.00
7748;BME280;3918;42.564;23.164;2023-01-09T09:24:25;-11650.84;;;-142.29;100.00
7748;BME280;3918;42.564;23.164;2023-01-09T09:26:52;-11650.84;;;-142.29;100.00
7748;BME280;3918;42.564;23.164;2023-01-09T09:29:18;-11650.84;;;-142.29;100.00
7748;BME280;3918;42.564;23.164;2023-01-09T09:31:45;-11650.84;;;-142.29;100.00
7748;BME280;3918;42.564;23.164;2023-01-09T09:34:12;-11650.84;;;-142.29;100.00
7748;BME280;3918;42.564;23.164;2023-01-09T09:36:39;-11650.84;;;-142.29;100.00
7748;BME280;3918;42.564;23.164;2023-01-09T09:39:05;-11650.84;;;-142.29;100.00
7748;BME280;3918;42.564;23.164;2023-01-09T09:41:46;-11650.84;;;-142.29;100.00
7748;BME280;3918;42.564;23.164;2023-01-09T09:44:51;-11650.84;;;-142.29;100.00
7748;BME280;3918;42.564;23.164;2023-01-09T09:47:34;-11650.84;;;-142.29;100.00
7748;BME280;3918;42.564;23.164;2023-01-09T09:50:18;-11650.84;;;-142.29;100.00
7748;BME280;3918;42.564;23.164;2023-01-09T09:52:57;-11650.84;;;-142.29;100.00
7748;BME280;3918;42.564;23.164;2023-01-09T09:55:30;-11650.84;;;-142.29;100.00
7748;BME280;3918;42.564;23.164;2023-01-09T09:58:00;-11650.84;;;-142.29;100.00
7748;BME280;3918;42.564;23.164;2023-01-09T10:00:28;-11650.84;;;-142.29;100.00
7748;BME280;3918;42.564;23.164;2023-01-09T10:02:59;-11650.84;;;-142.29;100.00
7748;BME280;3918;42.564;23.164;2023-01-09T10:05:28;-11650.84;;;-142.29;100.00
7748;BME280;3918;42.564;23.164;2023-01-09T10:08:02;-11650.84;;;-142.29;100.00
7748;BME280;3918;42.564;23.164;2023-01-09T10:10:32;-11650.84;;;-142.29;100.00
7748;BME280;3918;42.564;23.164;2023-01-09T10:13:03;-11650.84;;;-142.29;100.00
7748;BME280;3918;42.564;23.164;2023-01-09T10:15:56;-11650.84;;;-142.29;100.00
7748;BME280;3918;42.564;23.164;2023-01-09T10:18:33;-11650.84;;;-142.29;100.00
7748;BME280;3918;42.564;23.164;2023-01-09T10:21:11;-11650.84;;;-142.29;100.00
7748;BME280;3918;42.564;23.164;2023-01-09T10:23:51;-11650.84;;;-142.29;100.00
7748;BME280;3918;42.564;23.164;2023-01-09T10:26:27;-11650.84;;;-142.29;100.00
7748;BME280;3918;42.564;23.164;2023-01-09T10:29:10;-11650.84;;;-142.29;100.00
7748;BME280;3918;42.564;23.164;2023-01-09T10:31:49;-11650.84;;;-142.29;99.83
7748;BME280;3918;42.564;23.164;2023-01-09T10:34:29;-11650.84;;;-142.29;95.61
7748;BME280;3918;42.564;23.164;2023-01-09T10:37:05;-11650.84;;;-142.29;93.17
7748;BME280;3918;42.564;23.164;2023-01-09T10:39:39;-11650.84;;;-142.29;92.58
7748;BME280;3918;42.564;23.164;2023-01-09T10:42:13;-11650.84;;;-142.29;95.15
7748;BME280;3918;42.564;23.164;2023-01-09T10:44:48;-11650.84;;;-142.29;91.89
7748;BME280;3918;42.564;23.164;2023-01-09T10:47:22;-11650.84;;;-142.29;89.08
7748;BME280;3918;42.564;23.164;2023-01-09T10:49:51;-11650.84;;;-142.29;88.31
7748;BME280;3918;42.564;23.164;2023-01-09T10:52:24;-11650.84;;;-142.29;87.25
7748;BME280;3918;42.564;23.164;2023-01-09T10:54:55;-11650.84;;;-142.29;87.47
7748;BME280;3918;42.564;23.164;2023-01-09T10:57:33;-11650.84;;;-142.29;85.46
7748;BME280;3918;42.564;23.164;2023-01-09T11:00:05;-11650.84;;;-142.29;83.30
7748;BME280;3918;42.564;23.164;2023-01-09T11:02:34;-11650.84;;;-142.29;86.26
7748;BME280;3918;42.564;23.164;2023-01-09T11:05:01;-11650.84;;;-142.29;85.81
7748;BME280;3918;42.564;23.164;2023-01-09T11:07:30;-11650.84;;;-142.29;84.17
7748;BME280;3918;42.564;23.164;2023-01-09T11:09:59;-11650.84;;;-142.29;83.38
7748;BME280;3918;42.564;23.164;2023-01-09T11:12:28;-11650.84;;;-142.29;83.51
7748;BME280;3918;42.564;23.164;2023-01-09T11:15:23;-11650.84;;;-142.29;82.61
7748;BME280;3918;42.564;23.164;2023-01-09T11:17:56;-11650.84;;;-142.29;80.63
7748;BME280;3918;42.564;23.164;2023-01-09T11:20:26;-11650.84;;;-142.29;81.48
7748;BME280;3918;42.564;23.164;2023-01-09T11:22:55;-11650.84;;;-142.29;78.42
7748;BME280;3918;42.564;23.164;2023-01-09T11:25:24;-11650.84;;;-142.29;80.23
7748;BME280;3918;42.564;23.164;2023-01-09T11:28:04;-11650.84;;;-142.29;78.69
7748;BME280;3918;42.564;23.164;2023-01-09T11:30:33;-11650.84;;;-142.29;76.22
7748;BME280;3918;42.564;23.164;2023-01-09T11:33:12;-11650.84;;;-142.29;75.92
7748;BME280;3918;42.564;23.164;2023-01-09T11:35:50;-11650.84;;;-142.29;74.39
7748;BME280;3918;42.564;23.164;2023-01-09T11:38:20;-11650.84;;;-142.29;73.43
7748;BME280;3918;42.564;23.164;2023-01-09T11:40:49;-11650.84;;;-142.29;73.63
7748;BME280;3918;42.564;23.164;2023-01-09T11:43:19;-11650.84;;;-142.29;71.62
7748;BME280;3918;42.564;23.164;2023-01-09T11:45:52;-11650.84;;;-142.29;70.76
7748;BME280;3918;42.564;23.164;2023-01-09T11:48:33;-11650.84;;;-142.29;70.90
7748;BME280;3918;42.564;23.164;2023-01-09T11:51:02;-11650.84;;;-142.29;68.25
7748;BME280;3918;42.564;23.164;2023-01-09T11:53:42;-11650.84;;;-142.29;67.31
7748;BME280;3918;42.564;23.164;2023-01-09T11:56:13;-11650.84;;;-142.29;66.75
7748;BME280;3918;42.564;23.164;2023-01-09T11:58:42;-11650.84;;;-142.29;63.99
7748;BME280;3918;42.564;23.164;2023-01-09T12:01:21;-11650.84;;;-142.29;63.89
7748;BME280;3918;42.564;23.164;2023-01-09T12:04:04;-11650.84;;;-142.29;62.73
7748;BME280;3918;42.564;23.164;2023-01-09T12:06:43;-11650.84;;;-142.29;63.26
7748;BME280;3918;42.564;23.164;2023-01-09T12:09:20;-11650.84;;;-142.29;63.07
7748;BME280;3918;42.564;23.164;2023-01-09T12:11:53;-11650.84;;;-142.29;62.04
7748;BME280;3918;42.564;23.164;2023-01-09T12:14:28;-11650.84;;;-142.29;63.44
7748;BME280;3918;42.564;23.164;2023-01-09T12:17:13;-11650.84;;;-142.29;63.02
7748;BME280;3918;42.564;23.164;2023-01-09T12:19:59;-11650.84;;;-142.29;63.23
7748;BME280;3918;42.564;23.164;2023-01-09T12:22:37;-11650.84;;;-142.29;63.66
7748;BME280;3918;42.564;23.164;2023-01-09T12:25:15;-11650.84;;;-142.29;64.82
7748;BME280;3918;42.564;23.164;2023-01-09T12:27:59;-11650.84;;;-142.29;66.12
7748;BME280;3918;42.564;23.164;2023-01-09T12:30:42;-11650.84;;;-142.29;68.10
7748;BME280;3918;42.564;23.164;2023-01-09T12:33:27;-11650.84;;;-142.29;68.55
7748;BME280;3918;42.564;23.164;2023-01-09T12:36:08;-11650.84;;;-142.29;69.20
7748;BME280;3918;42.564;23.164;2023-01-09T12:38:40;-11650.84;;;-142.29;69.68
7748;BME280;3918;42.564;23.164;2023-01-09T12:41:33;-11650.84;;;-142.29;70.90
7748;BME280;3918;42.564;23.164;2023-01-09T12:44:13;-11650.84;;;-142.29;71.30
7748;BME280;3918;42.564;23.164;2023-01-09T12:46:49;-11650.84;;;-142.29;71.55
7748;BME280;3918;42.564;23.164;2023-01-09T12:49:27;-11650.84;;;-142.29;71.81
7748;BME280;3918;42.564;23.164;2023-01-09T12:52:00;-11650.84;;;-142.29;73.10
7748;BME280;3918;42.564;23.164;2023-01-09T12:54:33;-11650.84;;;-142.29;73.47
7748;BME280;3918;42.564;23.164;2023-01-09T12:57:08;-11650.84;;;-142.29;73.51
7748;BME280;3918;42.564;23.164;2023-01-09T12:59:40;-11650.84;;;-142.29;75.68
7748;BME280;3918;42.564;23.164;2023-01-09T13:02:17;-11650.84;;;-142.29;77.03
7748;BME280;3918;42.564;23.164;2023-01-09T13:04:53;-11650.84;;;-142.29;78.38
7748;BME280;3918;42.564;23.164;2023-01-09T13:07:25;-11650.84;;;-142.29;79.00
7748;BME280;3918;42.564;23.164;2023-01-09T13:09:57;-11650.84;;;-142.29;79.42
7748;BME280;3918;42.564;23.164;2023-01-09T13:12:26;-11650.84;;;-142.29;80.91
7748;BME280;3918;42.564;23.164;2023-01-09T13:14:58;-11650.84;;;-142.29;82.21
7748;BME280;3918;42.564;23.164;2023-01-09T13:17:30;-11650.84;;;-142.29;82.02
7748;BME280;3918;42.564;23.164;2023-01-09T13:20:03;-11650.84;;;-142.29;81.74
7748;BME280;3918;42.564;23.164;2023-01-09T13:22:36;-11650.84;;;-142.29;82.28
7748;BME280;3918;42.564;23.164;2023-01-09T13:25:30;-11650.84;;;-142.29;82.95
7748;BME280;3918;42.564;23.164;2023-01-09T13:28:01;-11650.84;;;-142.29;84.39
7748;BME280;3918;42.564;23.164;2023-01-09T13:30:48;-11650.84;;;-142.29;84.73
7748;BME280;3918;42.564;23.164;2023-01-09T13:33:19;-11650.84;;;-142.29;83.40
7748;BME280;3918;42.564;23.164;2023-01-09T13:35:52;-11650.84;;;-142.29;85.87
7748;BME280;3918;42.564;23.164;2023-01-09T13:38:22;-11650.84;;;-142.29;85.38
7748;BME280;3918;42.564;23.164;2023-01-09T13:41:05;-11650.84;;;-142.29;85.88
7748;BME280;3918;42.564;23.164;2023-01-09T13:43:52;-11650.84;;;-142.29;84.06
7748;BME280;3918;42.564;23.164;2023-01-09T13:46:20;-11650.84;;;-142.29;83.87
7748;BME280;3918;42.564;23.164;2023-01-09T13:48:46;-11650.84;;;-142.29;84.73
7748;BME280;3918;42.564;23.164;2023-01-09T13:55:03;-11650.84;;;-142.29;85.68
7748;BME280;3918;42.564;23.164;2023-01-09T14:00:52;-11650.84;;;-142.29;88.38
7748;BME280;3918;42.564;23.164;2023-01-09T14:03:23;-11650.84;;;-142.29;89.39
7748;BME280;3918;42.564;23.164;2023-01-09T14:06:13;-11650.84;;;-142.29;90.77
7748;BME280;3918;42.564;23.164;2023-01-09T14:08:42;-11650.84;;;-142.29;91.41
7748;BME280;3918;42.564;23.164;2023-01-09T14:11:17;-11650.84;;;-142.29;92.12
7748;BME280;3918;42.564;23.164;2023-01-09T14:13:50;-11650.84;;;-142.29;93.35
7748;BME280;3918;42.564;23.164;2023-01-09T14:16:20;-11650.84;;;-142.29;93.53
7748;BME280;3918;42.564;23.164;2023-01-09T14:18:50;-11650.84;;;-142.29;93.48
7748;BME280;3918;42.564;23.164;2023-01-09T14:21:17;-11650.84;;;-142.29;94.71
7748;BME280;3918;42.564;23.164;2023-01-09T14:23:51;-11650.84;;;-142.29;96.33
7748;BME280;3918;42.564;23.164;2023-01-09T14:26:24;-11650.84;;;-142.29;96.61
7748;BME280;3918;42.564;23.164;2023-01-09T14:32:43;-11650.84;;;-142.29;97.82
7748;BME280;3918;42.564;23.164;2023-01-09T14:35:15;-11650.84;;;-142.29;100.00
7748;BME280;3918;42.564;23.164;2023-01-09T14:37:55;-11650.84;;;-142.29;100.00
7748;BME280;3918;42.564;23.164;2023-01-09T14:40:25;-11650.84;;;-142.29;100.00
7748;BME280;3918;42.564;23.164;2023-01-09T14:42:58;-11650.84;;;-142.29;100.00
7748;BME280;3918;42.564;23.164;2023-01-09T14:45:30;-11650.84;;;-142.29;100.00
7748;BME280;3918;42.564;23.164;2023-01-09T14:48:01;-11650.84;;;-142.29;100.00
7748;BME280;3918;42.564;23.164;2023-01-09T14:50:32;-11650.84;;;-142.29;100.00
7748;BME280;3918;42.564;23.164;2023-01-09T14:53:03;-11650.84;;;-142.29;100.00
7748;BME280;3918;42.564;23.164;2023-01-09T14:55:37;-11650.84;;;-142.29;100.00
7748;BME280;3918;42.564;23.164;2023-01-09T14:58:19;-11650.84;;;-142.29;100.00
7748;BME280;3918;42.564;23.164;2023-01-09T15:00:48;-11650.84;;;-142.29;98.95
7748;BME280;3918;42.564;23.164;2023-01-09T15:03:16;-11650.84;;;-142.29;97.78
7748;BME280;3918;42.564;23.164;2023-01-09T15:05:45;-11650.84;;;-142.29;99.82
7748;BME280;3918;42.564;23.164;2023-01-09T15:08:15;-11650.84;;;-142.29;99.58
7748;BME280;3918;42.564;23.164;2023-01-09T15:10:45;-11650.84;;;-142.29;100.00
7748;BME280;3918;42.564;23.164;2023-01-09T15:13:16;-11650.84;;;-142.29;100.00
7748;BME280;3918;42.564;23.164;2023-01-09T15:15:45;-11650.84;;;-142.29;100.00
7748;BME280;3918;42.564;23.164;2023-01-09T15:18:20;-11650.84;;;-142.29;100.00
7748;BME280;3918;42.564;23.164;2023-01-09T15:20:52;-11650.84;;;-142.29;100.00
7748;BME280;3918;42.564;23.164;2023-01-09T15:23:21;-11650.84;;;-142.29;100.00
7748;BME280;3918;42.564;23.164;2023-01-09T15:25:48;-11650.84;;;-142.29;100.00
7748;BME280;3918;42.564;23.164;2023-01-09T15:28:25;-11650.84;;;-142.29;100.00
7748;BME280;3918;42.564;23.164;2023-01-09T15:30:55;-11650.84;;;-142.29;100.00
7748;BME280;3918;42.564;23.164;2023-01-09T15:33:23;-11650.84;;;-142.29;100.00
7748;BME280;3918;42.564;23.164;2023-01-09T15:35:51;-11650.84;;;-142.29;100.00
7748;BME280;3918;42.564;23.164;2023-01-09T15:38:25;-11650.84;;;-142.29;100.00
7748;BME280;3918;42.564;23.164;2023-01-09T15:40:53;-11650.84;;;-142.29;100.00
7748;BME280;3918;42.564;23.164;2023-01-09T15:43:23;-11650.84;;;-142.29;100.00
7748;BME280;3918;42.564;23.164;2023-01-09T15:45:52;-11650.84;;;-142.29;100.00
7748;BME280;3918;42.564;23.164;2023-01-09T15:48:24;-11650.84;;;-142.29;100.00
7748;BME280;3918;42.564;23.164;2023-01-09T15:50:55;-11650.84;;;-142.29;100.00
7748;BME280;3918;42.564;23.164;2023-01-09T15:53:24;-11650.84;;;-142.29;100.00
7748;BME280;3918;42.564;23.164;2023-01-09T15:56:04;-11650.84;;;-142.29;100.00
7748;BME280;3918;42.564;23.164;2023-01-09T15:58:35;-11650.84;;;-142.29;100.00
7748;BME280;3918;42.564;23.164;2023-01-09T16:01:03;-11650.84;;;-142.29;100.00
7748;BME280;3918;42.564;23.164;2023-01-09T16:03:31;-11650.84;;;-142.29;100.00
7748;BME280;3918;42.564;23.164;2023-01-09T16:06:06;-11650.84;;;-142.29;100.00
7748;BME280;3918;42.564;23.164;2023-01-09T16:08:35;-11650.84;;;-142.29;100.00
7748;BME280;3918;42.564;23.164;2023-01-09T16:11:05;-11650.84;;;-142.29;100.00
7748;BME280;3918;42.564;23.164;2023-01-09T16:13:41;-11650.84;;;-142.29;100.00
7748;BME280;3918;42.564;23.164;2023-01-09T16:16:10;-11650.84;;;-142.29;100.00
7748;BME280;3918;42.564;23.164;2023-01-09T16:18:48;-11650.84;;;-142.29;100.00
7748;BME280;3918;42.564;23.164;2023-01-09T16:21:30;-11650.84;;;-142.29;100.00
7748;BME280;3918;42.564;23.164;2023-01-09T16:24:00;-11650.84;;;-142.29;100.00
7748;BME280;3918;42.564;23.164;2023-01-09T16:26:29;-11650.84;;;-142.29;100.00
7748;BME280;3918;42.564;23.164;2023-01-09T16:29:32;-11650.84;;;-142.29;100.00
7748;BME280;3918;42.564;23.164;2023-01-09T16:32:00;-11650.84;;;-142.29;100.00
7748;BME280;3918;42.564;23.164;2023-01-09T16:34:27;-11650.84;;;-142.29;100.00
7748;BME280;3918;42.564;23.164;2023-01-09T16:36:54;-11650.84;;;-142.29;100.00
7748;BME280;3918;42.564;23.164;2023-01-09T16:39:21;-11650.84;;;-142.29;100.00
7748;BME280;3918;42.564;23.164;2023-01-09T16:41:50;-11650.84;;;-142.29;100.00
7748;BME280;3918;42.564;23.164;2023-01-09T16:44:35;-11650.84;;;-142.29;100.00
7748;BME280;3918;42.564;23.164;2023-01-09T16:47:02;-11650.84;;;-142.29;100.00
7748;BME280;3918;42.564;23.164;2023-01-09T16:49:29;-11650.84;;;-142.29;100.00
7748;BME280;3918;42.564;23.164;2023-01-09T16:51:56;-11650.84;;;-142.29;100.00
7748;BME280;3918;42.564;23.164;2023-01-09T16:54:27;-11650.84;;;-142.29;100.00
7748;BME280;3918;42.564;23.164;2023-01-09T16:56:55;-11650.84;;;-142.29;100.00
7748;BME280;3918;42.564;23.164;2023-01-09T16:59:23;-11650.84;;;-142.29;100.00
7748;BME280;3918;42.564;23.164;2023-01-09T17:01:54;-11650.84;;;-142.29;100.00
7748;BME280;3918;42.564;23.164;2023-01-09T17:04:21;-11650.84;;;-142.29;100.00
7748;BME280;3918;42.564;23.164;2023-01-09T17:06:49;-11650.84;;;-142.29;100.00
7748;BME280;3918;42.564;23.164;2023-01-09T17:09:18;-11650.84;;;-142.29;100.00
7748;BME280;3918;42.564;23.164;2023-01-09T17:11:47;-11650.84;;;-142.29;100.00
7748;BME280;3918;42.564;23.164;2023-01-09T17:14:14;-11650.84;;;-142.29;100.00
7748;BME280;3918;42.564;23.164;2023-01-09T17:16:41;-11650.84;;;-142.29;100.00
7748;BME280;3918;42.564;23.164;2023-01-09T17:19:15;-11650.84;;;-142.29;100.00
7748;BME280;3918;42.564;23.164;2023-01-09T17:21:44;-11650.84;;;-142.29;100.00
7748;BME280;3918;42.564;23.164;2023-01-09T17:24:11;-11650.84;;;-142.29;100.00
7748;BME280;3918;42.564;23.164;2023-01-09T17:26:55;-11650.84;;;-142.29;100.00
7748;BME280;3918;42.564;23.164;2023-01-09T17:29:40;-11650.84;;;-142.29;100.00
7748;BME280;3918;42.564;23.164;2023-01-09T17:32:08;-11650.84;;;-142.29;100.00
7748;BME280;3918;42.564;23.164;2023-01-09T17:34:39;-11650.84;;;-142.29;100.00
7748;BME280;3918;42.564;23.164;2023-01-09T17:37:07;-11650.84;;;-142.29;100.00
7748;BME280;3918;42.564;23.164;2023-01-09T17:39:34;-11650.84;;;-142.29;100.00
7748;BME280;3918;42.564;23.164;2023-01-09T17:42:00;-11650.84;;;-142.29;100.00
7748;BME280;3918;42.564;23.164;2023-01-09T17:44:27;-11650.84;;;-142.29;100.00
7748;BME280;3918;42.564;23.164;2023-01-09T17:46:54;-11650.84;;;-142.29;100.00
7748;BME280;3918;42.564;23.164;2023-01-09T17:49:21;-11650.84;;;-142.29;100.00
7748;BME280;3918;42.564;23.164;2023-01-09T17:51:49;-11650.84;;;-142.29;100.00
7748;BME280;3918;42.564;23.164;2023-01-09T17:54:16;-11650.84;;;-142.29;100.00
7748;BME280;3918;42.564;23.164;2023-01-09T17:56:44;-11650.84;;;-142.29;100.00
7748;BME280;3918;42.564;23.164;2023-01-09T17:59:12;-11650.84;;;-142.29;100.00
7748;BME280;3918;42.564;23.164;2023-01-09T18:01:41;-11650.84;;;-142.29;100.00
7748;BME280;3918;42.564;23.164;2023-01-09T18:04:09;-11650.84;;;-142.29;100.00
7748;BME280;3918;42.564;23.164;2023-01-09T18:06:36;-11650.84;;;-142.29;100.00
7748;BME280;3918;42.564;23.164;2023-01-09T18:09:05;-11650.84;;;-142.29;100.00
7748;BME280;3918;42.564;23.164;2023-01-09T18:11:33;-11650.84;;;-142.29;100.00
7748;BME280;3918;42.564;23.164;2023-01-09T18:14:00;-11650.84;;;-142.29;100.00
7748;BME280;3918;42.564;23.164;2023-01-09T18:16:27;-11650.84;;;-142.29;100.00
7748;BME280;3918;42.564;23.164;2023-01-09T18:18:56;-11650.84;;;-142.29;100.00
7748;BME280;3918;42.564;23.164;2023-01-09T18:21:23;-11650.84;;;-142.29;100.00
7748;BME280;3918;42.564;23.164;2023-01-09T18:23:51;-11650.84;;;-142.29;100.00
7748;BME280;3918;42.564;23.164;2023-01-09T18:26:19;-11650.84;;;-142.29;100.00
7748;BME280;3918;42.564;23.164;2023-01-09T18:28:48;-11650.84;;;-142.29;100.00
7748;BME280;3918;42.564;23.164;2023-01-09T18:31:15;-11650.84;;;-142.29;100.00
7748;BME280;3918;42.564;23.164;2023-01-09T18:33:46;-11650.84;;;-142.29;100.00
7748;BME280;3918;42.564;23.164;2023-01-09T18:36:16;-11650.84;;;-142.29;100.00
7748;BME280;3918;42.564;23.164;2023-01-09T18:38:44;-11650.84;;;-142.29;100.00
7748;BME280;3918;42.564;23.164;2023-01-09T18:41:10;-11650.84;;;-142.29;100.00
7748;BME280;3918;42.564;23.164;2023-01-09T18:43:38;-11650.84;;;-142.29;100.00
7748;BME280;3918;42.564;23.164;2023-01-09T18:46:05;-11650.84;;;-142.29;100.00
7748;BME280;3918;42.564;23.164;2023-01-09T18:48:33;-11650.84;;;-142.29;100.00
7748;BME280;3918;42.564;23.164;2023-01-09T18:51:04;-11650.84;;;-142.29;100.00
7748;BME280;3918;42.564;23.164;2023-01-09T18:53:32;-11650.84;;;-142.29;100.00
7748;BME280;3918;42.564;23.164;2023-01-09T18:56:01;-11650.84;;;-142.29;100.00
7748;BME280;3918;42.564;23.164;2023-01-09T18:58:28;-11650.84;;;-142.29;100.00
7748;BME280;3918;42.564;23.164;2023-01-09T19:00:57;-11650.84;;;-142.29;100.00
7748;BME280;3918;42.564;23.164;2023-01-09T19:03:23;-11650.84;;;-142.29;100.00
7748;BME280;3918;42.564;23.164;2023-01-09T19:05:50;-11650.84;;;-142.29;100.00